Time;durP1;ratioP1;P1;durP2;ratioP2;P2;SDS_P1;SDS_P2;PMS_P1;PMS_P2;Temp;Humidity;BMP_temperature;BMP_pressure;BME280_temperature;BME280_humidity;BME280_pressure;Samples;Min_cycle;Max_cycle;Signal;HPM_P1;HPM_P2
2021/08/21 00:00:26;;;;;;;;;0.00;0.00;;;;;26.97;40.63;100903.16;5073890;28;45424;-66
2021/08/21 00:02:53;;;;;;;;;0.00;0.00;;;;;26.97;40.72;100905.88;5074202;28;45151;-66
2021/08/21 00:05:18;;;;;;;;;0.00;0.00;;;;;26.96;39.96;100901.38;5074154;28;45646;-66
2021/08/21 00:07:45;;;;;;;;;0.00;0.00;;;;;26.96;40.07;100907.72;5055456;28;45970;-66
2021/08/21 00:10:12;;;;;;;;;0.00;0.00;;;;;26.96;40.59;100901.38;5074081;28;45544;-66
2021/08/21 00:12:38;;;;;;;;;0.00;0.00;;;;;26.96;40.97;100901.38;5074003;28;45527;-65
2021/08/21 00:15:09;;;;;;;;;0.00;0.00;;;;;26.95;40.67;100905.97;5074250;28;45516;-66
2021/08/21 00:17:38;;;;;;;;;0.00;0.00;;;;;26.96;40.14;100904.09;5073188;28;45849;-66
2021/08/21 00:20:06;;;;;;;;;0.00;0.00;;;;;26.94;40.13;100902.34;5073822;28;45690;-66
2021/08/21 00:22:31;;;;;;;;;0.00;0.00;;;;;26.93;40.49;100894.25;5073638;28;45406;-66
2021/08/21 00:24:57;;;;;;;;;0.00;0.00;;;;;26.91;40.22;100891.59;5073966;28;45534;-66
2021/08/21 00:27:25;;;;;;;;;0.00;0.00;;;;;26.92;40.63;100884.28;5073812;28;45676;-65
2021/08/21 00:29:52;;;;;;;;;0.00;0.00;;;;;26.90;40.54;100886.19;5072476;28;45495;-65
2021/08/21 00:32:17;;;;;;;;;0.00;0.00;;;;;26.90;40.34;100892.53;5073942;28;45819;-66
2021/08/21 00:34:42;;;;;;;;;0.00;0.00;;;;;26.90;40.18;100888.94;5074212;28;45419;-66
2021/08/21 00:37:08;;;;;;;;;0.00;0.00;;;;;26.91;40.71;100879.78;5076869;28;45535;-66
2021/08/21 00:39:33;;;;;;;;;0.00;0.00;;;;;26.88;40.20;100878.09;5058933;28;45698;-66
2021/08/21 00:41:58;;;;;;;;;0.00;0.00;;;;;26.87;40.26;100870.88;5077192;28;45436;-66
2021/08/21 00:44:24;;;;;;;;;0.00;0.00;;;;;26.87;40.29;100870.00;5077123;28;45436;-66
2021/08/21 00:47:05;;;;;;;;;0.00;0.00;;;;;26.87;40.44;100865.41;5076332;28;45741;-65
2021/08/21 00:49:34;;;;;;;;;0.00;0.00;;;;;26.87;40.24;100870.88;5077268;28;45551;-66
2021/08/21 00:52:01;;;;;;;;;0.00;0.00;;;;;26.86;40.87;100871.81;5077244;28;45840;-66
2021/08/21 00:54:27;;;;;;;;;0.00;0.00;;;;;26.87;40.88;100868.16;5058704;28;45449;-66
2021/08/21 00:56:54;;;;;;;;;0.00;0.00;;;;;26.87;40.94;100867.28;5076695;28;46644;-67
2021/08/21 00:59:20;;;;;;;;;0.00;0.00;;;;;26.81;40.41;100862.13;5077148;28;45625;-66
2021/08/21 01:01:46;;;;;;;;;0.00;0.00;;;;;26.85;40.51;100872.81;5076831;28;45499;-66
2021/08/21 01:04:11;;;;;;;;;0.00;0.00;;;;;26.85;40.99;100870.06;5077043;28;45366;-65
2021/08/21 01:06:36;;;;;;;;;0.00;0.00;;;;;26.84;40.93;100859.22;5076515;28;45393;-66
2021/08/21 01:09:03;;;;;;;;;0.00;0.00;;;;;26.85;40.53;100861.88;5058318;28;45490;-66
2021/08/21 01:11:32;;;;;;;;;0.00;0.00;;;;;26.84;41.05;100859.22;5076768;28;45435;-66
2021/08/21 01:13:59;;;;;;;;;0.00;0.00;;;;;26.83;40.91;100863.81;5076907;28;45400;-66
2021/08/21 01:16:25;;;;;;;;;0.00;0.00;;;;;26.85;40.86;100872.81;5076508;28;45419;-66
2021/08/21 01:18:51;;;;;;;;;0.00;0.00;;;;;26.84;40.86;100870.13;5076445;28;45485;-66
2021/08/21 01:21:18;;;;;;;;;0.00;0.00;;;;;26.85;41.02;100861.88;5076543;28;45441;-66
2021/08/21 01:23:45;;;;;;;;;0.00;0.00;;;;;26.84;40.78;100862.81;5076923;28;45721;-66
2021/08/21 01:26:11;;;;;;;;;0.00;0.00;;;;;26.85;41.10;100861.88;5076369;28;45443;-66
2021/08/21 01:28:37;;;;;;;;;0.00;0.00;;;;;26.84;40.59;100859.22;5074838;28;45488;-66
2021/08/21 01:31:06;;;;;;;;;0.00;0.00;;;;;26.85;41.00;100856.41;5076655;28;45732;-66
2021/08/21 01:33:35;;;;;;;;;0.00;0.00;;;;;26.84;40.64;100854.63;5076730;28;45468;-66
2021/08/21 01:36:00;;;;;;;;;0.00;0.00;;;;;26.83;40.54;100852.00;5075851;28;45389;-66
2021/08/21 01:38:26;;;;;;;;;0.00;0.00;;;;;26.84;40.42;100856.50;5076129;28;45702;-66
2021/08/21 01:40:53;;;;;;;;;0.00;0.00;;;;;26.86;40.23;100860.03;5076317;28;45709;-66
2021/08/21 01:43:20;;;;;;;;;0.00;0.00;;;;;26.86;40.85;100866.34;5058198;28;45426;-66
2021/08/21 01:45:47;;;;;;;;;0.00;0.00;;;;;26.86;40.78;100862.75;5075842;28;45429;-66
2021/08/21 01:48:13;;;;;;;;;0.00;0.00;;;;;26.86;40.69;100857.28;5076034;28;45488;-66
2021/08/21 01:50:39;;;;;;;;;0.00;0.00;;;;;26.85;40.93;100845.50;5076009;28;45508;-66
2021/08/21 01:53:18;;;;;;;;;0.00;0.00;;;;;26.82;40.50;100844.78;5076052;28;45480;-66
2021/08/21 01:55:45;;;;;;;;;0.00;0.00;;;;;26.83;40.33;100847.44;5057306;28;47010;-66
2021/08/21 01:58:21;;;;;;;;;0.00;0.00;;;;;26.82;41.07;100845.66;5057327;28;45519;-66
2021/08/21 02:00:48;;;;;;;;;0.00;0.00;;;;;26.81;40.37;100837.56;5075824;28;45543;-66
2021/08/21 02:03:13;;;;;;;;;0.00;0.00;;;;;26.78;40.82;100838.59;5075871;28;45418;-66
2021/08/21 02:05:39;;;;;;;;;0.00;0.00;;;;;26.80;40.51;100843.97;5075464;28;45438;-66
2021/08/21 02:08:05;;;;;;;;;0.00;0.00;;;;;26.80;40.53;100844.84;5075534;28;45687;-66
2021/08/21 02:10:32;;;;;;;;;0.00;0.00;;;;;26.82;40.70;100840.19;5075890;28;45483;-67
2021/08/21 02:12:57;;;;;;;;;0.00;0.00;;;;;26.79;40.63;100829.47;5075815;28;45666;-66
2021/08/21 02:15:23;;;;;;;;;0.00;0.00;;;;;26.79;40.39;100832.19;5075354;28;45412;-66
2021/08/21 02:17:48;;;;;;;;;0.00;0.00;;;;;26.79;40.61;100834.91;5075413;28;45416;-66
2021/08/21 02:20:14;;;;;;;;;0.00;0.00;;;;;26.79;40.98;100828.59;5075670;28;44825;-66
2021/08/21 02:22:43;;;;;;;;;0.00;0.00;;;;;26.78;40.92;100832.25;5075880;28;45369;-65
2021/08/21 02:25:13;;;;;;;;;0.00;0.00;;;;;26.78;40.41;100833.13;5075093;28;46169;-66
2021/08/21 02:27:42;;;;;;;;;0.00;0.00;;;;;26.77;40.66;100828.66;5075217;28;45553;-66
2021/08/21 02:30:08;;;;;;;;;0.00;0.00;;;;;26.73;41.19;100829.78;5074052;28;45504;-66
2021/08/21 02:32:34;;;;;;;;;0.00;0.00;;;;;26.78;40.48;100833.13;5075327;28;45511;-66
2021/08/21 02:35:01;;;;;;;;;0.00;0.00;;;;;26.77;40.75;100834.13;5075243;28;45553;-66
2021/08/21 02:37:27;;;;;;;;;0.00;0.00;;;;;26.76;40.72;100829.59;5075107;28;45334;-66
2021/08/21 02:39:53;;;;;;;;;0.00;0.00;;;;;26.76;40.51;100829.59;5075376;28;45464;-66
2021/08/21 02:42:19;;;;;;;;;0.00;0.00;;;;;26.74;40.73;100823.34;5075131;28;45360;-66
2021/08/21 02:44:44;;;;;;;;;0.00;0.00;;;;;26.74;40.71;100817.88;5074978;28;45985;-66
2021/08/21 02:47:10;;;;;;;;;0.00;0.00;;;;;26.75;40.52;100816.94;5075114;28;45665;-66
2021/08/21 02:49:35;;;;;;;;;0.00;0.00;;;;;26.74;40.73;100820.63;5075304;28;45750;-66
2021/08/21 02:52:02;;;;;;;;;0.00;0.00;;;;;26.72;41.31;100825.28;5075039;28;45508;-66
2021/08/21 02:54:27;;;;;;;;;0.00;0.00;;;;;26.70;40.67;100813.56;5055936;28;46207;-66
2021/08/21 02:56:53;;;;;;;;;0.00;0.00;;;;;26.71;40.84;100828.97;5074751;28;45509;-66
2021/08/21 02:59:20;;;;;;;;;0.00;0.00;;;;;26.71;41.13;100827.13;5074574;28;44840;-65
2021/08/21 03:01:45;;;;;;;;;0.00;0.00;;;;;26.70;41.17;100824.47;5074860;28;45424;-66
2021/08/21 03:04:12;;;;;;;;;0.00;0.00;;;;;26.69;41.15;100817.25;5074815;28;45694;-65
2021/08/21 03:06:38;;;;;;;;;0.00;0.00;;;;;26.67;40.74;100816.47;5056684;28;45843;-66
2021/08/21 03:09:03;;;;;;;;;0.00;0.00;;;;;26.68;40.82;100818.22;5074923;28;45414;-66
2021/08/21 03:11:31;;;;;;;;;0.00;0.00;;;;;26.64;41.31;100814.78;5075116;28;45425;-66
2021/08/21 03:13:56;;;;;;;;;0.00;0.00;;;;;26.67;41.24;100821.91;5056494;28;48549;-66
2021/08/21 03:16:21;;;;;;;;;0.00;0.00;;;;;26.64;40.90;100819.31;5074413;28;45569;-66
2021/08/21 03:18:47;;;;;;;;;0.00;0.00;;;;;26.63;40.91;100817.56;5074973;28;45810;-66
2021/08/21 03:21:14;;;;;;;;;0.00;0.00;;;;;26.65;40.89;100812.94;5056752;28;45510;-66
2021/08/21 03:23:42;;;;;;;;;0.00;0.00;;;;;26.65;40.78;100807.47;5074641;28;46079;-66
2021/08/21 03:26:09;;;;;;;;;0.00;0.00;;;;;26.63;41.32;100804.81;5074597;28;45364;-66
2021/08/21 03:28:35;;;;;;;;;0.00;0.00;;;;;26.64;41.41;100817.50;5073519;28;45457;-66
2021/08/21 03:31:01;;;;;;;;;0.00;0.00;;;;;26.63;40.80;100809.41;5074527;28;45525;-66
2021/08/21 03:33:26;;;;;;;;;0.00;0.00;;;;;26.64;41.33;100802.97;5074313;28;45400;-68
2021/08/21 03:35:51;;;;;;;;;0.00;0.00;;;;;26.63;41.06;100806.66;5056152;28;45388;-66
2021/08/21 03:38:18;;;;;;;;;0.00;0.00;;;;;26.62;41.44;100800.34;5074354;28;45928;-66
2021/08/21 03:40:43;;;;;;;;;0.00;0.00;;;;;26.62;40.91;100799.44;5074474;28;45517;-65
2021/08/21 03:43:09;;;;;;;;;0.00;0.00;;;;;26.61;40.91;100804.00;5074094;28;45542;-66
2021/08/21 03:45:36;;;;;;;;;0.00;0.00;;;;;26.60;41.26;100791.34;5074235;28;45482;-66
2021/08/21 03:48:02;;;;;;;;;0.00;0.00;;;;;26.61;41.42;100786.78;5074451;28;45426;-66
2021/08/21 03:50:29;;;;;;;;;0.00;0.00;;;;;26.58;41.08;100790.50;5074184;28;45455;-66
2021/08/21 03:52:54;;;;;;;;;0.00;0.00;;;;;26.59;40.92;100792.28;5073973;28;45763;-66
2021/08/21 03:55:19;;;;;;;;;0.00;0.00;;;;;26.57;41.03;100786.00;5074031;28;45479;-66
2021/08/21 03:57:45;;;;;;;;;0.67;0.00;;;;;26.59;41.34;100786.84;5074462;28;45536;-66
2021/08/21 04:00:11;;;;;;;;;0.00;0.00;;;;;26.59;40.96;100785.97;5074574;28;45424;-66
2021/08/21 04:02:36;;;;;;;;;0.00;0.00;;;;;26.58;41.21;100785.06;5055412;28;47446;-65
2021/08/21 04:05:01;;;;;;;;;0.00;0.00;;;;;26.57;41.43;100779.69;5074173;28;45423;-66
2021/08/21 04:07:27;;;;;;;;;0.00;0.00;;;;;26.53;41.11;100777.09;5074162;28;45472;-66
2021/08/21 04:09:52;;;;;;;;;0.00;0.00;;;;;26.55;41.22;100769.72;5074369;28;45418;-66
2021/08/21 04:12:18;;;;;;;;;0.00;0.00;;;;;26.55;41.55;100777.03;5077299;28;45747;-66
2021/08/21 04:14:46;;;;;;;;;0.00;0.00;;;;;26.54;40.97;100765.25;5077509;28;45679;-66
2021/08/21 04:17:12;;;;;;;;;0.00;0.00;;;;;26.53;41.13;100766.19;5077873;28;45443;-65
2021/08/21 04:19:37;;;;;;;;;0.00;0.00;;;;;26.53;41.39;100768.03;5077707;28;45717;-66
2021/08/21 04:22:03;;;;;;;;;0.00;0.00;;;;;26.52;41.27;100778.06;5077398;28;45372;-66
2021/08/21 04:24:28;;;;;;;;;0.00;0.00;;;;;26.52;41.63;100767.16;5077331;28;45589;-66
2021/08/21 04:26:53;;;;;;;;;0.00;0.00;;;;;26.50;41.65;100758.19;5077890;28;45545;-67
2021/08/21 04:29:32;;;;;;;;;0.00;0.00;;;;;26.50;41.42;100760.91;5076262;28;45476;-66
2021/08/21 04:31:58;;;;;;;;;0.00;0.00;;;;;26.49;41.63;100759.13;5058544;28;48631;-66
2021/08/21 04:34:23;;;;;;;;;0.00;0.00;;;;;26.50;41.64;100768.19;5077304;28;45772;-65
2021/08/21 04:36:50;;;;;;;;;0.00;0.00;;;;;26.51;41.31;100769.97;5077059;28;45479;-65
2021/08/21 04:39:15;;;;;;;;;0.00;0.00;;;;;26.49;41.18;100772.75;5077354;28;45526;-66
2021/08/21 04:41:40;;;;;;;;;0.00;0.00;;;;;26.49;41.41;100770.03;5076849;28;46263;-66
2021/08/21 04:44:06;;;;;;;;;0.00;0.00;;;;;26.49;41.74;100778.22;5077034;28;45708;-67
2021/08/21 04:46:34;;;;;;;;;0.00;0.00;;;;;26.46;41.52;100770.22;5077192;28;45674;-66
2021/08/21 04:49:02;;;;;;;;;0.00;0.00;;;;;26.46;41.28;100778.41;5077195;28;45541;-66
2021/08/21 04:51:28;;;;;;;;;0.00;0.00;;;;;26.47;41.62;100779.28;5076816;28;45623;-66
2021/08/21 04:53:53;;;;;;;;;0.00;0.00;;;;;26.46;41.67;100781.13;5076671;28;45585;-66
2021/08/21 04:56:19;;;;;;;;;0.00;0.00;;;;;26.47;41.25;100771.97;5076775;28;45405;-66
2021/08/21 04:58:44;;;;;;;;;0.00;0.00;;;;;26.46;41.37;100772.94;5077000;28;45480;-66
2021/08/21 05:01:10;;;;;;;;;0.00;0.00;;;;;26.46;41.38;100775.66;5076361;28;46098;-66
2021/08/21 05:03:36;;;;;;;;;0.00;0.00;;;;;26.47;41.34;100779.28;5076317;27;45683;-66
2021/08/21 05:06:01;;;;;;;;;0.00;0.00;;;;;26.48;41.64;100783.75;5058278;28;45691;-66
2021/08/21 05:08:26;;;;;;;;;0.00;0.00;;;;;26.47;41.71;100785.59;5076953;28;45396;-66
2021/08/21 05:10:52;;;;;;;;;0.00;0.00;;;;;26.46;41.80;100780.22;5076264;28;45485;-66
2021/08/21 05:13:19;;;;;;;;;0.00;0.00;;;;;26.44;41.74;100785.78;5076494;28;45431;-66
2021/08/21 05:15:46;;;;;;;;;0.00;0.00;;;;;26.46;41.65;100783.84;5076680;28;45426;-66
2021/08/21 05:18:13;;;;;;;;;0.00;0.00;;;;;26.45;41.70;100782.06;5076517;28;45470;-66
2021/08/21 05:20:43;;;;;;;;;0.00;0.00;;;;;26.47;41.35;100790.19;5076088;28;46888;-66
2021/08/21 05:23:14;;;;;;;;;0.00;0.00;;;;;26.47;41.36;100782.88;5076057;28;45389;-66
2021/08/21 05:25:41;;;;;;;;;0.00;0.00;;;;;26.46;41.34;100778.41;5076417;28;45473;-66
2021/08/21 05:28:08;;;;;;;;;0.00;0.00;;;;;26.46;41.90;100775.66;5076499;28;45490;-66
2021/08/21 05:30:34;;;;;;;;;0.00;0.00;;;;;26.46;41.58;100786.56;5075046;28;46512;-66
2021/08/21 05:32:59;;;;;;;;;0.00;0.00;;;;;26.45;41.70;100782.06;5076139;28;45453;-66
2021/08/21 05:35:25;;;;;;;;;0.00;0.00;;;;;26.45;41.81;100782.06;5076270;28;44803;-66
2021/08/21 05:37:50;;;;;;;;;0.00;0.00;;;;;26.45;41.89;100790.25;5076560;28;45513;-66
2021/08/21 05:40:16;;;;;;;;;0.00;0.00;;;;;26.44;41.61;100785.78;5075829;28;45576;-66
2021/08/21 05:42:41;;;;;;;;;0.00;0.00;;;;;26.42;41.87;100782.25;5076067;28;45443;-67
2021/08/21 05:45:07;;;;;;;;;0.00;0.00;;;;;26.47;41.77;100790.19;5057729;28;45453;-67
2021/08/21 05:47:33;;;;;;;;;0.00;0.00;;;;;26.47;41.88;100791.06;5076503;28;45492;-66
2021/08/21 05:50:01;;;;;;;;;0.00;0.00;;;;;26.47;41.70;100787.44;5075794;28;45609;-66
2021/08/21 05:52:29;;;;;;;;;0.00;0.00;;;;;26.48;41.75;100786.47;5075927;28;45452;-66
2021/08/21 05:54:54;;;;;;;;;0.00;0.00;;;;;26.46;41.55;100788.41;5057787;28;45353;-66
2021/08/21 05:57:19;;;;;;;;;0.00;0.00;;;;;26.46;41.69;100789.31;5076102;28;45388;-66
2021/08/21 05:59:45;;;;;;;;;0.00;0.00;;;;;26.49;41.50;100788.25;5075852;28;46124;-66
2021/08/21 06:02:12;;;;;;;;;0.00;0.00;;;;;26.47;41.58;100787.44;5075554;27;45453;-66
2021/08/21 06:04:37;;;;;;;;;0.00;0.00;;;;;26.52;41.19;100798.97;5076075;28;45483;-66
2021/08/21 06:07:03;;;;;;;;;0.00;0.00;;;;;26.51;41.49;100792.66;5076012;28;45730;-66
2021/08/21 06:09:28;;;;;;;;;0.67;0.00;;;;;26.50;41.74;100785.44;5075657;28;45795;-66
2021/08/21 06:11:53;;;;;;;;;0.00;0.00;;;;;26.53;41.84;100789.84;5075228;28;45481;-66
2021/08/21 06:14:19;;;;;;;;;0.00;0.00;;;;;26.53;41.37;100790.72;5075553;28;45517;-66
2021/08/21 06:16:45;;;;;;;;;0.00;0.00;;;;;26.54;41.73;100791.59;5075836;28;45554;-66
2021/08/21 06:19:10;;;;;;;;;0.00;0.00;;;;;26.56;41.76;100800.59;5075158;28;45983;-66
2021/08/21 06:21:35;;;;;;;;;0.00;0.00;;;;;26.55;41.40;100794.25;5075413;28;45440;-66
2021/08/21 06:24:01;;;;;;;;;0.00;0.00;;;;;26.56;41.38;100786.94;5075469;28;45790;-66
2021/08/21 06:26:26;;;;;;;;;0.00;0.00;;;;;26.57;41.42;100786.00;5075570;28;45334;-66
2021/08/21 06:28:52;;;;;;;;;0.00;0.00;;;;;26.60;41.76;100790.44;5056223;28;47134;-66
2021/08/21 06:31:17;;;;;;;;;0.00;0.00;;;;;26.61;41.72;100786.78;5075364;28;45401;-66
2021/08/21 06:33:42;;;;;;;;;0.00;0.00;;;;;26.62;41.41;100786.69;5074254;28;45489;-66
2021/08/21 06:36:08;;;;;;;;;0.00;0.00;;;;;26.64;41.77;100783.88;5075276;28;45509;-66
2021/08/21 06:38:33;;;;;;;;;0.00;0.00;;;;;26.66;41.44;100779.22;5075184;28;46046;-66
2021/08/21 06:40:58;;;;;;;;;0.00;0.00;;;;;26.66;41.31;100779.22;5075201;28;45401;-66
2021/08/21 06:43:24;;;;;;;;;0.00;0.00;;;;;26.69;41.46;100787.25;5056995;28;45431;-66
2021/08/21 06:45:49;;;;;;;;;0.00;0.00;;;;;26.70;41.45;100784.44;5075490;28;45777;-66
2021/08/21 06:48:15;;;;;;;;;0.33;0.33;;;;;26.71;41.35;100777.13;5075005;28;45533;-66
2021/08/21 06:50:41;;;;;;;;;0.00;0.00;;;;;26.72;41.21;100774.34;5074762;28;45548;-66
2021/08/21 06:53:07;;;;;;;;;0.00;0.00;;;;;26.75;41.53;100778.75;5075039;28;45524;-66
2021/08/21 06:55:32;;;;;;;;;0.00;0.00;;;;;26.76;41.19;100775.03;5074801;28;45497;-66
2021/08/21 06:57:58;;;;;;;;;0.00;0.00;;;;;26.75;41.51;100762.38;5074505;28;45892;-67
2021/08/21 07:00:23;;;;;;;;;0.00;0.00;;;;;26.80;41.32;100771.19;5075037;28;45420;-66
2021/08/21 07:02:49;;;;;;;;;0.00;0.00;;;;;26.82;41.02;100774.69;5074829;28;45491;-66
2021/08/21 07:05:14;;;;;;;;;0.00;0.00;;;;;26.83;41.57;100771.03;5074941;28;45515;-66
2021/08/21 07:07:39;;;;;;;;;0.00;0.00;;;;;26.85;41.16;100777.28;5074632;28;46256;-66
2021/08/21 07:10:06;;;;;;;;;0.00;0.00;;;;;26.86;41.26;100765.38;5074898;28;45476;-66
2021/08/21 07:12:31;;;;;;;;;0.00;0.00;;;;;26.85;41.48;100768.22;5056448;28;45409;-67
2021/08/21 07:14:56;;;;;;;;;0.00;0.00;;;;;26.89;41.04;100775.28;5074884;28;45454;-66
2021/08/21 07:17:22;;;;;;;;;0.00;0.00;;;;;26.92;40.97;100781.47;5074366;28;45400;-66
2021/08/21 07:19:47;;;;;;;;;0.00;0.00;;;;;26.91;40.96;100776.09;5074712;28;45682;-66
2021/08/21 07:22:14;;;;;;;;;0.00;0.00;;;;;26.94;41.22;100782.25;5074709;28;45626;-66
2021/08/21 07:24:40;;;;;;;;;0.00;0.00;;;;;26.94;41.30;100781.34;5074968;28;45747;-66
2021/08/21 07:27:06;;;;;;;;;0.00;0.00;;;;;26.97;41.24;100781.22;5073969;28;46099;-66
2021/08/21 07:29:31;;;;;;;;;0.00;0.00;;;;;27.00;41.17;100785.63;5073129;28;45452;-66
2021/08/21 07:31:56;;;;;;;;;0.00;0.00;;;;;27.02;40.59;100795.47;5074649;28;44834;-66
2021/08/21 07:34:22;;;;;;;;;0.67;0.00;;;;;27.04;40.86;100787.22;5074843;28;45481;-66
2021/08/21 07:36:47;;;;;;;;;0.00;0.00;;;;;27.05;40.96;100802.63;5074164;28;45601;-67
2021/08/21 07:39:13;;;;;;;;;0.00;0.00;;;;;27.06;41.26;100793.47;5055959;28;45410;-66
2021/08/21 07:41:38;;;;;;;;;0.00;0.00;;;;;27.08;41.29;100786.06;5074260;28;45411;-66
2021/08/21 07:44:03;;;;;;;;;0.00;0.00;;;;;27.09;41.05;100796.03;5074764;28;45712;-66
2021/08/21 07:46:30;;;;;;;;;0.00;0.00;;;;;27.12;41.06;100791.28;5077886;28;46091;-66
2021/08/21 07:48:55;;;;;;;;;0.00;0.00;;;;;27.13;40.58;100784.88;5078028;28;45525;-66
2021/08/21 07:51:20;;;;;;;;;0.00;0.00;;;;;27.16;41.01;100788.41;5077805;28;45715;-66
2021/08/21 07:53:46;;;;;;;;;0.00;0.00;;;;;27.17;40.64;100785.59;5059886;28;45451;-66
2021/08/21 07:56:11;;;;;;;;;0.00;0.00;;;;;27.16;40.91;100778.34;5077493;28;45401;-67
2021/08/21 07:58:36;;;;;;;;;0.00;0.00;;;;;27.21;40.96;100789.00;5059072;28;45427;-66
2021/08/21 08:01:02;;;;;;;;;0.00;0.00;;;;;27.22;40.50;100790.78;5077647;28;45425;-66
2021/08/21 08:03:28;;;;;;;;;0.00;0.00;;;;;27.25;40.51;100793.41;5077803;27;45411;-66
2021/08/21 08:05:53;;;;;;;;;0.00;0.00;;;;;27.20;40.76;100779.94;5059001;28;46244;-66
2021/08/21 08:08:20;;;;;;;;;0.00;0.00;;;;;27.26;40.59;100785.09;5077386;28;45419;-66
2021/08/21 08:10:45;;;;;;;;;0.00;0.00;;;;;27.28;40.59;100777.72;5077800;28;45358;-66
2021/08/21 08:13:11;;;;;;;;;0.00;0.00;;;;;27.30;40.36;100775.78;5077519;28;45549;-66
2021/08/21 08:15:36;;;;;;;;;0.00;0.00;;;;;27.29;40.91;100774.03;5077373;28;45505;-66
2021/08/21 08:18:02;;;;;;;;;0.00;0.00;;;;;27.33;40.67;100780.22;5077661;28;45429;-66
2021/08/21 08:20:27;;;;;;;;;0.00;0.00;;;;;27.36;40.21;100779.16;5077277;28;45787;-66
2021/08/21 08:22:54;;;;;;;;;0.00;0.00;;;;;27.37;40.41;100780.91;5077491;28;45493;-67
2021/08/21 08:25:19;;;;;;;;;0.00;0.00;;;;;27.38;40.95;100771.75;5077336;28;45424;-66
2021/08/21 08:27:46;;;;;;;;;0.00;0.00;;;;;27.40;40.31;100775.28;5077262;28;45525;-67
2021/08/21 08:30:12;;;;;;;;;0.00;0.00;;;;;27.41;40.43;100771.56;5076246;28;45496;-66
2021/08/21 08:32:38;;;;;;;;;0.00;0.00;;;;;27.43;40.92;100766.91;5077633;28;45334;-66
2021/08/21 08:35:03;;;;;;;;;0.00;0.00;;;;;27.42;40.66;100774.22;5076876;28;45442;-67
2021/08/21 08:37:29;;;;;;;;;1.00;1.00;;;;;27.45;40.09;100768.59;5076932;28;45517;-66
2021/08/21 08:39:54;;;;;;;;;0.00;0.00;;;;;27.46;40.71;100774.94;5077275;28;45434;-66
2021/08/21 08:42:21;;;;;;;;;0.00;0.00;;;;;27.49;40.04;100774.75;5077367;28;45478;-66
2021/08/21 08:44:47;;;;;;;;;0.00;0.00;;;;;27.48;40.21;100773.00;5058244;28;48041;-67
2021/08/21 08:47:21;;;;;;;;;0.33;0.00;;;;;27.51;40.04;100778.28;5076476;28;45523;-66
2021/08/21 08:49:49;;;;;;;;;0.00;0.00;;;;;27.51;40.26;100783.72;5076793;28;45407;-67
2021/08/21 08:52:17;;;;;;;;;0.00;0.00;;;;;27.51;40.04;100783.72;5076677;28;45528;-66
2021/08/21 08:54:44;;;;;;;;;0.00;0.00;;;;;27.53;40.08;100779.97;5076878;28;45435;-66
2021/08/21 08:57:16;;;;;;;;;0.00;0.00;;;;;27.54;40.05;100794.50;5075596;28;45353;-66
2021/08/21 08:59:43;;;;;;;;;0.00;0.00;;;;;27.56;40.49;100792.56;5076820;28;45374;-66
2021/08/21 09:02:08;;;;;;;;;0.00;0.00;;;;;27.56;39.85;100787.09;5076841;28;45515;-66
2021/08/21 09:04:33;;;;;;;;;0.00;0.00;;;;;27.53;40.01;100788.16;5076568;28;45506;-66
2021/08/21 09:07:00;;;;;;;;;0.33;0.33;;;;;27.58;40.49;100789.75;5041422;28;45534;-66
2021/08/21 09:09:26;;;;;;;;;0.00;0.00;;;;;27.57;39.93;100780.69;5077098;28;45484;-66
2021/08/21 09:11:54;;;;;;;;;0.00;0.00;;;;;27.60;40.25;100788.69;5058398;28;45619;-66
2021/08/21 09:14:29;;;;;;;;;0.00;0.00;;;;;27.63;40.41;100795.81;5076323;28;46137;-66
2021/08/21 09:17:14;;;;;;;;;0.00;0.00;;;;;27.62;40.05;100794.94;5076147;28;45476;-66
2021/08/21 09:19:40;;;;;;;;;0.00;0.00;;;;;27.64;40.09;100792.13;5076457;28;45571;-66
2021/08/21 09:22:07;;;;;;;;;0.00;0.00;;;;;27.66;39.90;100790.22;5076621;28;45488;-67
2021/08/21 09:24:34;;;;;;;;;0.00;0.00;;;;;27.66;40.03;100799.28;5076555;28;46142;-66
2021/08/21 09:27:21;;;;;;;;;0.00;0.00;;;;;27.69;40.37;100793.66;5076389;28;45436;-66
2021/08/21 09:30:07;;;;;;;;;0.00;0.00;;;;;27.69;40.59;100793.66;5075005;28;45494;-66
2021/08/21 09:32:32;;;;;;;;;0.00;0.00;;;;;27.70;40.22;100784.47;5076616;28;45491;-66
2021/08/21 09:35:04;;;;;;;;;0.00;0.00;;;;;27.71;40.47;100778.06;5076069;28;45442;-66
2021/08/21 09:37:45;;;;;;;;;0.00;0.00;;;;;27.72;39.91;100779.78;5075893;28;45488;-66
2021/08/21 09:40:22;;;;;;;;;0.00;0.00;;;;;27.72;40.22;100773.47;5076579;28;45500;-66
2021/08/21 09:42:47;;;;;;;;;0.00;0.00;;;;;27.74;40.20;100768.78;5076413;28;45433;-66
2021/08/21 09:45:13;;;;;;;;;0.00;0.00;;;;;27.76;40.38;100765.97;5076147;28;45408;-66
2021/08/21 09:47:38;;;;;;;;;0.00;0.00;;;;;27.77;40.33;100767.72;5076047;28;45413;-66
2021/08/21 09:50:13;;;;;;;;;0.00;0.00;;;;;27.76;39.92;100765.97;5075790;28;45448;-66
2021/08/21 09:52:38;;;;;;;;;0.00;0.00;;;;;27.79;40.09;100765.78;5076401;28;45397;-66
2021/08/21 09:55:09;;;;;;;;;0.00;0.00;;;;;27.81;39.71;100764.72;5075648;28;45619;-66
2021/08/21 09:57:36;;;;;;;;;0.00;0.00;;;;;27.83;40.27;100761.91;5075678;28;45484;-66
2021/08/21 10:00:04;;;;;;;;;0.00;0.00;;;;;27.83;40.34;100757.31;5075701;28;45406;-66
2021/08/21 10:02:32;;;;;;;;;0.00;0.00;;;;;27.85;39.66;100759.97;5076039;28;45850;-66
2021/08/21 10:04:58;;;;;;;;;0.00;0.00;;;;;27.83;39.98;100762.78;5075522;28;46183;-66
2021/08/21 10:07:34;;;;;;;;;0.00;0.00;;;;;27.86;39.86;100767.22;5075327;28;45579;-66
2021/08/21 10:10:05;;;;;;;;;0.00;0.00;;;;;27.88;40.17;100770.75;5076008;28;45451;-66
2021/08/21 10:12:36;;;;;;;;;0.00;0.00;;;;;27.87;39.96;100769.84;5075928;28;45769;-66
2021/08/21 10:15:09;;;;;;;;;0.00;0.00;;;;;27.90;40.14;100771.56;5075447;28;46008;-67
2021/08/21 10:17:37;;;;;;;;;0.00;0.00;;;;;27.90;40.46;100772.44;5075476;28;45476;-70
2021/08/21 10:20:04;;;;;;;;;0.00;0.00;;;;;27.92;40.31;100766.88;5075787;28;45430;-67
2021/08/21 10:22:30;;;;;;;;;0.00;0.00;;;;;27.92;39.96;100767.75;5075673;28;45479;-66
2021/08/21 10:25:06;;;;;;;;;0.00;0.00;;;;;27.92;40.26;100764.16;5075538;28;45961;-67
2021/08/21 10:27:52;;;;;;;;;0.00;0.00;;;;;27.95;40.34;100761.22;5057039;28;45497;-67
2021/08/21 10:30:43;;;;;;;;;0.00;0.00;;;;;27.96;40.13;100757.53;5074126;28;45496;-66
2021/08/21 10:33:09;;;;;;;;;0.00;0.00;;;;;27.93;39.80;100744.03;5075491;28;45543;-66
2021/08/21 10:35:56;;;;;;;;;0.00;0.00;;;;;27.98;40.32;100752.84;5075034;28;45743;-66
2021/08/21 10:38:33;;;;;;;;;0.00;0.00;;;;;27.99;39.96;100756.47;5075049;28;45413;-66
2021/08/21 10:41:00;;;;;;;;;0.00;0.00;;;;;27.98;39.68;100750.13;5075214;28;45707;-66
2021/08/21 10:43:49;;;;;;;;;0.00;0.00;;;;;28.01;40.06;100755.38;5075342;28;45745;-66
2021/08/21 10:46:51;;;;;;;;;0.00;0.00;;;;;28.02;39.69;100768.09;5075061;28;45465;-66
2021/08/21 10:49:23;;;;;;;;;0.00;0.00;;;;;28.04;40.06;100770.75;5056766;28;45450;-66
2021/08/21 10:51:49;;;;;;;;;0.00;0.00;;;;;28.04;39.99;100757.97;5074911;28;45538;-66
2021/08/21 10:54:43;;;;;;;;;0.00;0.00;;;;;28.03;40.33;100752.56;5074867;28;45385;-66
2021/08/21 10:57:29;;;;;;;;;0.00;0.00;;;;;28.07;40.11;100756.88;5072818;28;45520;-66
2021/08/21 10:59:55;;;;;;;;;0.00;0.00;;;;;28.07;39.75;100755.03;5075035;28;45395;-66
2021/08/21 11:02:28;;;;;;;;;0.00;0.00;;;;;28.09;39.53;100764.03;5056745;28;45537;-66
2021/08/21 11:04:54;;;;;;;;;0.00;0.00;;;;;28.08;39.99;100742.25;5075083;28;45409;-66
2021/08/21 11:07:40;;;;;;;;;0.00;0.00;;;;;28.11;40.08;100753.88;5074982;28;46521;-67
2021/08/21 11:10:28;;;;;;;;;0.00;0.00;;;;;28.12;40.01;100757.50;5074864;28;45508;-66
2021/08/21 11:12:55;;;;;;;;;0.00;0.00;;;;;28.12;39.89;100760.25;5074836;28;45413;-66
2021/08/21 11:15:31;;;;;;;;;0.00;0.00;;;;;28.15;39.46;100756.44;5075021;28;45429;-66
2021/08/21 11:17:57;;;;;;;;;0.00;0.00;;;;;28.12;39.91;100752.03;5074638;28;46185;-67
2021/08/21 11:20:24;;;;;;;;;0.00;0.00;;;;;28.18;39.75;100758.97;5074502;28;45862;-67
2021/08/21 11:23:09;;;;;;;;;0.00;0.00;;;;;28.17;39.40;100757.22;5074984;28;45464;-67
2021/08/21 11:25:40;;;;;;;;;0.00;0.00;;;;;28.19;39.92;100758.03;5060479;28;45671;-68